createdAt,value
2018-12-10T00:00:18.171Z,1000.42
2018-12-10T00:01:18.136Z,1000.40
2018-12-10T00:02:18.061Z,1000.40
2018-12-10T00:03:18.010Z,1000.42
2018-12-10T00:04:17.952Z,1000.43
2018-12-10T00:05:17.896Z,1000.42
2018-12-10T00:06:17.859Z,1000.43
2018-12-10T00:07:17.785Z,1000.47
2018-12-10T00:08:17.729Z,1000.47
2018-12-10T00:09:17.671Z,1000.45
2018-12-10T00:10:17.614Z,1000.46
2018-12-10T00:11:17.581Z,1000.45
2018-12-10T00:12:17.505Z,1000.53
2018-12-10T00:13:17.474Z,1000.49
2018-12-10T00:14:17.391Z,1000.47
2018-12-10T00:15:17.337Z,1000.53
2018-12-10T00:16:17.304Z,1000.54
2018-12-10T00:17:17.228Z,1000.50
2018-12-10T00:18:17.166Z,1000.51
2018-12-10T00:19:17.112Z,1000.53
2018-12-10T00:20:17.061Z,1000.54
2018-12-10T00:21:17.028Z,1000.55
2018-12-10T00:22:16.951Z,1000.57
2018-12-10T00:23:16.898Z,1000.65
2018-12-10T00:24:16.839Z,1000.65
2018-12-10T00:25:24.678Z,1000.67
2018-12-10T00:26:16.748Z,1000.72
2018-12-10T00:27:16.662Z,1000.76
2018-12-10T00:28:16.616Z,1000.78
2018-12-10T00:29:16.561Z,1000.78
2018-12-10T00:30:16.506Z,1000.77
2018-12-10T00:31:16.492Z,1000.77
2018-12-10T00:32:16.390Z,1000.76
2018-12-10T00:33:16.335Z,1000.79
2018-12-10T00:34:16.276Z,1000.79
2018-12-10T00:35:16.226Z,1000.81
2018-12-10T00:36:16.194Z,1000.82
2018-12-10T00:37:16.115Z,1000.77
2018-12-10T00:38:16.097Z,1000.75
2018-12-10T00:39:15.999Z,1000.75
2018-12-10T00:40:15.947Z,1000.79
2018-12-10T00:41:15.914Z,1000.81
2018-12-10T00:42:15.832Z,1000.78
2018-12-10T00:43:15.776Z,1000.78
2018-12-10T00:44:15.723Z,1000.80
2018-12-10T00:45:15.668Z,1000.82
2018-12-10T00:46:15.642Z,1000.84
2018-12-10T00:47:15.556Z,1000.85
2018-12-10T00:48:15.501Z,1000.83
2018-12-10T00:49:15.444Z,1000.87
2018-12-10T00:50:15.393Z,1000.88
2018-12-10T00:51:15.353Z,1000.92
2018-12-10T00:52:15.274Z,1000.93
2018-12-10T00:53:15.219Z,1000.97
2018-12-10T00:54:15.163Z,1000.98
2018-12-10T00:55:15.107Z,1000.99
2018-12-10T00:56:15.078Z,1001.00
2018-12-10T00:57:15.002Z,1000.97
2018-12-10T00:58:14.945Z,1000.99
2018-12-10T00:59:14.888Z,1000.99
2018-12-10T01:00:14.832Z,1001.04
2018-12-10T01:01:14.801Z,1001.05
2018-12-10T01:02:14.716Z,1001.03
2018-12-10T01:03:14.662Z,1001.07
2018-12-10T01:04:14.611Z,1001.10
2018-12-10T01:05:14.550Z,1001.05
2018-12-10T01:06:14.522Z,1001.09
2018-12-10T01:07:14.444Z,1001.15
2018-12-10T01:08:14.385Z,1001.17
2018-12-10T01:09:14.328Z,1001.16
2018-12-10T01:10:14.273Z,1001.21
2018-12-10T01:11:14.244Z,1001.20
2018-12-10T01:12:14.158Z,1001.20
2018-12-10T01:13:14.105Z,1001.19
2018-12-10T01:14:14.049Z,1001.29
2018-12-10T01:15:14.019Z,1001.27
2018-12-10T01:16:13.937Z,1001.28
2018-12-10T01:17:13.906Z,1001.26
2018-12-10T01:18:13.825Z,1001.26
2018-12-10T01:19:13.782Z,1001.32
2018-12-10T01:20:13.717Z,1001.28
2018-12-10T01:21:13.661Z,1001.28
2018-12-10T01:22:13.629Z,1001.30
2018-12-10T01:23:13.546Z,1001.38
2018-12-10T01:24:13.490Z,1001.30
2018-12-10T01:25:13.437Z,1001.34
2018-12-10T01:26:13.379Z,1001.37
2018-12-10T01:27:13.357Z,1001.39
2018-12-10T01:28:13.269Z,1001.34
2018-12-10T01:29:13.213Z,1001.39
2018-12-10T01:30:13.157Z,1001.40
2018-12-10T01:31:13.102Z,1001.46
2018-12-10T01:32:13.071Z,1001.49
2018-12-10T01:33:12.987Z,1001.54
2018-12-10T01:34:12.935Z,1001.50
2018-12-10T01:35:12.876Z,1001.54
2018-12-10T01:36:12.825Z,1001.58
2018-12-10T01:37:12.794Z,1001.59
2018-12-10T01:38:12.705Z,1001.55
2018-12-10T01:39:12.654Z,1001.64
2018-12-10T01:40:12.602Z,1001.75
2018-12-10T01:41:12.544Z,1001.73
2018-12-10T01:42:12.517Z,1001.72
2018-12-10T01:43:12.434Z,1001.73
2018-12-10T01:44:12.379Z,1001.78
2018-12-10T01:45:12.323Z,1001.84
2018-12-10T01:46:12.263Z,1001.78
2018-12-10T01:47:12.231Z,1001.74
2018-12-10T01:48:12.148Z,1001.83
2018-12-10T01:49:12.096Z,1001.85
2018-12-10T01:50:12.044Z,1001.84
2018-12-10T01:51:11.989Z,1001.85
2018-12-10T01:52:11.955Z,1001.91
2018-12-10T01:53:11.874Z,1001.90
2018-12-10T01:54:11.816Z,1001.91
2018-12-10T01:55:11.765Z,1001.90
2018-12-10T01:56:11.701Z,1001.90
2018-12-10T01:57:11.676Z,1001.84
2018-12-10T01:58:11.594Z,1001.93
2018-12-10T01:59:11.538Z,1001.92
2018-12-10T02:00:11.484Z,1001.92
2018-12-10T02:01:11.425Z,1001.94
2018-12-10T02:02:11.391Z,1001.98
2018-12-10T02:03:11.317Z,1001.97
2018-12-10T02:04:11.278Z,1002.00
2018-12-10T02:05:11.210Z,1002.02
2018-12-10T02:06:11.150Z,1002.00
2018-12-10T02:07:11.112Z,1001.95
2018-12-10T02:08:11.033Z,1002.03
2018-12-10T02:09:10.981Z,1002.02
2018-12-10T02:10:10.922Z,1002.02
2018-12-10T02:11:10.869Z,1002.01
2018-12-10T02:12:10.835Z,1002.01
2018-12-10T02:13:10.756Z,1002.03
2018-12-10T02:14:10.698Z,1002.04
2018-12-10T02:15:10.640Z,1002.03
2018-12-10T02:16:10.588Z,1002.08
2018-12-10T02:17:10.557Z,1002.06
2018-12-10T02:18:10.474Z,1002.07
2018-12-10T02:19:10.420Z,1002.07
2018-12-10T02:20:10.363Z,1002.10
2018-12-10T02:21:10.304Z,1002.09
2018-12-10T02:22:10.276Z,1002.12
2018-12-10T02:23:10.193Z,1002.14
2018-12-10T02:24:10.138Z,1002.19
2018-12-10T02:25:10.079Z,1002.15
2018-12-10T02:26:10.027Z,1002.16
2018-12-10T02:27:09.992Z,1002.16
2018-12-10T02:28:09.910Z,1002.13
2018-12-10T02:29:09.856Z,1002.15
2018-12-10T02:30:09.807Z,1002.12
2018-12-10T02:31:09.746Z,1002.15
2018-12-10T02:32:09.715Z,1002.13
2018-12-10T02:33:09.628Z,1002.16
2018-12-10T02:34:09.582Z,1002.21
2018-12-10T02:35:09.523Z,1002.29
2018-12-10T02:36:09.465Z,1002.24
2018-12-10T02:37:09.436Z,1002.25
2018-12-10T02:38:09.354Z,1002.24
2018-12-10T02:39:09.310Z,1002.28
2018-12-10T02:40:09.249Z,1002.19
2018-12-10T02:41:09.187Z,1002.23
2018-12-10T02:42:09.153Z,1002.27
2018-12-10T02:43:09.074Z,1002.25
2018-12-10T02:44:09.018Z,1002.33
2018-12-10T02:45:08.963Z,1002.37
2018-12-10T02:46:08.907Z,1002.28
2018-12-10T02:47:08.885Z,1002.33
2018-12-10T02:48:08.804Z,1002.32
2018-12-10T02:49:08.733Z,1002.31
2018-12-10T02:50:08.683Z,1002.30
2018-12-10T02:51:08.628Z,1002.28
2018-12-10T02:52:08.595Z,1002.31
2018-12-10T02:53:08.536Z,1002.32
2018-12-10T02:54:08.456Z,1002.31
2018-12-10T02:55:08.401Z,1002.34
2018-12-10T02:56:08.347Z,1002.35
2018-12-10T02:57:08.291Z,1002.35
2018-12-10T02:58:08.260Z,1002.35
2018-12-10T02:59:08.180Z,1002.37
2018-12-10T03:00:08.125Z,1002.37
2018-12-10T03:01:08.064Z,1002.44
2018-12-10T03:02:08.009Z,1002.40
2018-12-10T03:03:07.985Z,1002.46
2018-12-10T03:04:07.904Z,1002.51
2018-12-10T03:05:07.842Z,1002.48
2018-12-10T03:06:07.779Z,1002.47
2018-12-10T03:07:07.733Z,1002.47
2018-12-10T03:08:07.700Z,1002.49
2018-12-10T03:09:07.620Z,1002.50
2018-12-10T03:10:07.561Z,1002.55
2018-12-10T03:11:07.507Z,1002.48
2018-12-10T03:12:07.462Z,1002.53
2018-12-10T03:13:07.419Z,1002.48
2018-12-10T03:14:07.335Z,1002.54
2018-12-10T03:15:07.280Z,1002.53
2018-12-10T03:16:07.224Z,1002.57
2018-12-10T03:17:07.171Z,1002.58
2018-12-10T03:18:07.136Z,1002.63
2018-12-10T03:19:07.062Z,1002.57
2018-12-10T03:20:06.995Z,1002.56
2018-12-10T03:21:06.945Z,1002.58
2018-12-10T03:22:06.898Z,1002.59
2018-12-10T03:23:06.853Z,1002.57
2018-12-10T03:24:06.771Z,1002.63
2018-12-10T03:25:06.719Z,1002.58
2018-12-10T03:26:06.668Z,1002.64
2018-12-10T03:27:06.608Z,1002.66
2018-12-10T03:28:06.576Z,1002.71
2018-12-10T03:29:06.512Z,1002.70
2018-12-10T03:30:06.450Z,1002.69
2018-12-10T03:31:06.549Z,1002.73
2018-12-10T03:32:06.335Z,1002.69
2018-12-10T03:33:06.296Z,1002.73
2018-12-10T03:34:06.217Z,1002.69
2018-12-10T03:35:06.166Z,1002.71
2018-12-10T03:36:06.097Z,1002.76
2018-12-10T03:37:06.047Z,1002.79
2018-12-10T03:38:06.016Z,1002.79
2018-12-10T03:39:05.938Z,1002.88
2018-12-10T03:40:05.879Z,1002.83
2018-12-10T03:41:05.847Z,1002.87
2018-12-10T03:42:05.765Z,1002.89
2018-12-10T03:43:05.732Z,1002.92
2018-12-10T03:44:05.653Z,1002.91
2018-12-10T03:45:05.610Z,1002.91
2018-12-10T03:46:05.548Z,1002.92
2018-12-10T03:47:05.480Z,1002.95
2018-12-10T03:48:05.475Z,1003.00
2018-12-10T03:49:05.371Z,1003.04
2018-12-10T03:50:05.314Z,1003.00
2018-12-10T03:51:05.261Z,1003.01
2018-12-10T03:52:05.204Z,1003.03
2018-12-10T03:53:05.146Z,1003.06
2018-12-10T03:54:05.112Z,1003.03
2018-12-10T03:55:05.036Z,1003.08
2018-12-10T03:56:05.009Z,1003.12
2018-12-10T03:57:04.921Z,1003.04
2018-12-10T03:58:04.867Z,1003.04
2018-12-10T03:59:04.834Z,1003.04
2018-12-10T04:00:04.761Z,1003.08
2018-12-10T04:01:04.697Z,1003.10
2018-12-10T04:02:04.639Z,1003.06
2018-12-10T04:03:04.584Z,1003.08
2018-12-10T04:04:04.554Z,1003.09
2018-12-10T04:05:04.474Z,1003.05
2018-12-10T04:06:04.421Z,1003.10
2018-12-10T04:07:04.359Z,1003.05
2018-12-10T04:08:04.307Z,1003.05
2018-12-10T04:09:04.277Z,1003.09
2018-12-10T04:10:04.194Z,1003.12
2018-12-10T04:11:04.138Z,1003.11
2018-12-10T04:12:04.083Z,1003.14
2018-12-10T04:13:04.028Z,1003.22
2018-12-10T04:14:04.092Z,1003.21
2018-12-10T04:15:03.912Z,1003.26
2018-12-10T04:16:03.858Z,1003.25
2018-12-10T04:17:03.798Z,1003.28
2018-12-10T04:18:03.743Z,1003.27
2018-12-10T04:19:03.711Z,1003.28
2018-12-10T04:20:03.643Z,1003.29
2018-12-10T04:21:03.575Z,1003.29
2018-12-10T04:22:03.520Z,1003.32
2018-12-10T04:23:03.470Z,1003.32
2018-12-10T04:24:03.432Z,1003.31
2018-12-10T04:25:03.351Z,1003.33
2018-12-10T04:26:03.296Z,1003.39
2018-12-10T04:27:03.239Z,1003.39
2018-12-10T04:28:03.184Z,1003.42
2018-12-10T04:29:03.152Z,1003.39
2018-12-10T04:30:03.074Z,1003.39
2018-12-10T04:31:03.014Z,1003.39
2018-12-10T04:32:02.959Z,1003.40
2018-12-10T04:33:02.906Z,1003.44
2018-12-10T04:34:02.872Z,1003.39
2018-12-10T04:35:02.792Z,1003.45
2018-12-10T04:36:02.739Z,1003.38
2018-12-10T04:37:02.672Z,1003.38
2018-12-10T04:38:02.624Z,1003.32
2018-12-10T04:39:02.592Z,1003.37
2018-12-10T04:40:02.512Z,1003.35
2018-12-10T04:41:02.459Z,1003.36
2018-12-10T04:42:02.404Z,1003.43
2018-12-10T04:43:02.365Z,1003.41
2018-12-10T04:44:02.328Z,1003.43
2018-12-10T04:45:02.234Z,1003.43
2018-12-10T04:46:02.189Z,1003.45
2018-12-10T04:47:02.116Z,1003.44
2018-12-10T04:48:02.062Z,1003.42
2018-12-10T04:49:02.029Z,1003.41
2018-12-10T04:50:01.953Z,1003.40
2018-12-10T04:51:01.889Z,1003.41
2018-12-10T04:52:01.898Z,1003.46
2018-12-10T04:53:01.779Z,1003.46
2018-12-10T04:54:01.748Z,1003.54
2018-12-10T04:55:01.719Z,1003.53
2018-12-10T04:56:01.616Z,1003.54
2018-12-10T04:57:01.565Z,1003.54
2018-12-10T04:58:01.502Z,1003.58
2018-12-10T04:59:01.469Z,1003.58
2018-12-10T05:00:01.387Z,1003.60
2018-12-10T05:01:01.342Z,1003.57
2018-12-10T05:02:01.276Z,1003.55
2018-12-10T05:03:01.225Z,1003.62
2018-12-10T05:04:01.206Z,1003.63
2018-12-10T05:05:01.107Z,1003.68
2018-12-10T05:06:01.051Z,1003.66
2018-12-10T05:07:00.995Z,1003.69
2018-12-10T05:08:00.944Z,1003.74
2018-12-10T05:09:00.880Z,1003.75
2018-12-10T05:10:00.900Z,1003.76
2018-12-10T05:11:00.769Z,1003.72
2018-12-10T05:12:00.776Z,1003.77
2018-12-10T05:13:00.659Z,1003.78
2018-12-10T05:14:00.604Z,1003.81
2018-12-10T05:15:00.570Z,1003.84
2018-12-10T05:16:00.490Z,1003.84
2018-12-10T05:17:00.437Z,1003.85
2018-12-10T05:18:00.374Z,1003.85
2018-12-10T05:19:00.320Z,1003.84
2018-12-10T05:20:00.289Z,1003.86
2018-12-10T05:21:00.219Z,1003.86
2018-12-10T05:22:00.153Z,1003.85
2018-12-10T05:23:00.097Z,1003.85
2018-12-10T05:24:00.042Z,1003.89
2018-12-10T05:25:00.007Z,1003.94
2018-12-10T05:25:59.928Z,1003.89
2018-12-10T05:27:01.271Z,1003.95
2018-12-10T05:27:59.818Z,1003.97
2018-12-10T05:28:59.760Z,1003.95
2018-12-10T05:29:59.729Z,1003.93
2018-12-10T05:30:59.649Z,1003.91
2018-12-10T05:31:59.590Z,1003.95
2018-12-10T05:32:59.536Z,1003.97
2018-12-10T05:33:59.480Z,1003.94
2018-12-10T05:34:59.454Z,1003.95
2018-12-10T05:35:59.372Z,1003.93
2018-12-10T05:36:59.315Z,1003.95
2018-12-10T05:37:59.259Z,1003.97
2018-12-10T05:38:59.195Z,1003.98
2018-12-10T05:39:59.169Z,1004.03
2018-12-10T05:40:59.088Z,1004.05
2018-12-10T05:41:59.032Z,1004.07
2018-12-10T05:42:58.975Z,1004.06
2018-12-10T05:43:58.918Z,1004.07
2018-12-10T05:44:58.886Z,1004.08
2018-12-10T05:45:58.807Z,1004.11
2018-12-10T05:46:58.753Z,1004.07
2018-12-10T05:47:58.696Z,1004.09
2018-12-10T05:48:58.637Z,1004.04
2018-12-10T05:49:58.605Z,1004.05
2018-12-10T05:50:58.526Z,1004.06
2018-12-10T05:51:58.471Z,1004.07
2018-12-10T05:52:58.413Z,1004.14
2018-12-10T05:53:58.362Z,1004.12
2018-12-10T05:54:58.324Z,1004.14
2018-12-10T05:55:58.245Z,1004.16
2018-12-10T05:56:58.192Z,1004.15
2018-12-10T05:57:58.135Z,1004.22
2018-12-10T05:58:58.083Z,1004.24
2018-12-10T05:59:58.048Z,1004.27
2018-12-10T06:00:57.992Z,1004.28
2018-12-10T06:01:57.910Z,1004.28
2018-12-10T06:02:57.857Z,1004.29
2018-12-10T06:03:57.794Z,1004.30
2018-12-10T06:04:57.738Z,1004.28
2018-12-10T06:05:57.707Z,1004.29
2018-12-10T06:06:57.626Z,1004.29
2018-12-10T06:07:57.577Z,1004.31
2018-12-10T06:08:57.515Z,1004.29
2018-12-10T06:09:57.458Z,1004.31
2018-12-10T06:10:57.425Z,1004.26
2018-12-10T06:11:57.346Z,1004.26
2018-12-10T06:12:57.292Z,1004.33
2018-12-10T06:13:57.232Z,1004.35
2018-12-10T06:14:57.177Z,1004.39
2018-12-10T06:15:57.145Z,1004.34
2018-12-10T06:16:57.067Z,1004.37
2018-12-10T06:17:57.010Z,1004.38
2018-12-10T06:18:56.950Z,1004.34
2018-12-10T06:19:56.894Z,1004.41
2018-12-10T06:20:56.864Z,1004.45
2018-12-10T06:21:56.783Z,1004.42
2018-12-10T06:22:56.727Z,1004.45
2018-12-10T06:23:56.673Z,1004.56
2018-12-10T06:26:03.790Z,1004.53
2018-12-10T06:26:56.503Z,1004.57
2018-12-10T06:27:56.444Z,1004.50
2018-12-10T06:28:56.388Z,1004.49
2018-12-10T06:29:56.335Z,1004.51
2018-12-10T06:30:56.297Z,1004.51
2018-12-10T06:31:56.218Z,1004.52
2018-12-10T06:32:56.158Z,1004.51
2018-12-10T06:33:56.109Z,1004.47
2018-12-10T06:34:56.049Z,1004.44
2018-12-10T06:35:56.021Z,1004.46
2018-12-10T06:36:55.937Z,1004.45
2018-12-10T06:37:55.878Z,1004.52
2018-12-10T06:38:55.822Z,1004.56
2018-12-10T06:39:55.766Z,1004.53
2018-12-10T06:40:55.752Z,1004.55
2018-12-10T06:41:55.657Z,1004.55
2018-12-10T06:42:55.600Z,1004.58
2018-12-10T06:43:55.542Z,1004.65
2018-12-10T06:44:55.481Z,1004.69
2018-12-10T06:45:55.430Z,1004.68
2018-12-10T06:46:55.398Z,1004.70
2018-12-10T06:47:55.327Z,1004.71
2018-12-10T06:48:55.256Z,1004.74
2018-12-10T06:49:55.211Z,1004.76
2018-12-10T06:50:55.145Z,1004.75
2018-12-10T06:51:55.110Z,1004.79
2018-12-10T06:52:55.034Z,1004.75
2018-12-10T06:53:54.978Z,1004.72
2018-12-10T06:54:54.920Z,1004.75
2018-12-10T06:55:54.863Z,1004.74
2018-12-10T06:56:54.833Z,1004.74
2018-12-10T06:57:54.777Z,1004.79
2018-12-10T06:58:54.693Z,1004.75
2018-12-10T06:59:54.641Z,1004.76
2018-12-10T07:00:54.596Z,1004.77
2018-12-10T07:01:54.551Z,1004.82
2018-12-10T07:02:54.464Z,1004.85
2018-12-10T07:03:54.412Z,1004.88
2018-12-10T07:04:54.358Z,1004.91
2018-12-10T07:05:54.298Z,1004.88
2018-12-10T07:06:54.274Z,1004.90
2018-12-10T07:07:54.188Z,1004.94
2018-12-10T07:08:54.127Z,1004.93
2018-12-10T07:09:54.077Z,1004.95
2018-12-10T07:10:54.017Z,1004.91
2018-12-10T07:11:53.983Z,1004.94
2018-12-10T07:12:53.907Z,1004.94
2018-12-10T07:13:53.888Z,1004.95
2018-12-10T07:14:53.796Z,1004.92
2018-12-10T07:15:53.740Z,1004.98
2018-12-10T07:16:54.580Z,1004.97
2018-12-10T07:17:53.627Z,1004.94
2018-12-10T07:18:53.572Z,1004.96
2018-12-10T07:19:53.510Z,1004.98
2018-12-10T07:20:53.457Z,1005.04
2018-12-10T07:21:53.433Z,1004.99
2018-12-10T07:22:53.342Z,1004.98
2018-12-10T07:23:53.298Z,1005.03
2018-12-10T07:24:53.230Z,1005.03
2018-12-10T07:25:53.174Z,1005.04
2018-12-10T07:26:53.138Z,1005.05
2018-12-10T07:27:53.066Z,1005.08
2018-12-10T07:28:53.005Z,1005.11
2018-12-10T07:29:52.949Z,1005.11
2018-12-10T07:30:52.897Z,1005.12
2018-12-10T07:31:52.881Z,1005.14
2018-12-10T07:32:52.778Z,1005.14
2018-12-10T07:33:52.722Z,1005.10
2018-12-10T07:34:52.668Z,1005.12
2018-12-10T07:35:52.616Z,1005.16
2018-12-10T07:36:52.576Z,1005.16
2018-12-10T07:37:52.501Z,1005.20
2018-12-10T07:38:52.441Z,1005.23
2018-12-10T07:39:52.388Z,1005.22
2018-12-10T07:40:52.328Z,1005.34
2018-12-10T07:41:52.308Z,1005.40
2018-12-10T07:42:52.217Z,1005.39
2018-12-10T07:43:52.165Z,1005.45
2018-12-10T07:44:52.101Z,1005.45
2018-12-10T07:45:52.047Z,1005.43
2018-12-10T07:46:51.996Z,1005.49
2018-12-10T07:47:51.957Z,1005.47
2018-12-10T07:48:51.873Z,1005.51
2018-12-10T07:49:51.821Z,1005.48
2018-12-10T07:50:51.764Z,1005.47
2018-12-10T07:51:51.710Z,1005.43
2018-12-10T07:52:51.674Z,1005.49
2018-12-10T07:53:51.593Z,1005.50
2018-12-10T07:54:51.534Z,1005.49
2018-12-10T07:55:51.484Z,1005.49
2018-12-10T07:56:51.425Z,1005.51
2018-12-10T07:57:51.392Z,1005.49
2018-12-10T07:58:51.315Z,1005.51
2018-12-10T07:59:51.258Z,1005.54
2018-12-10T08:00:51.199Z,1005.53
2018-12-10T08:01:51.143Z,1005.50
2018-12-10T08:02:51.117Z,1005.56
2018-12-10T08:03:51.029Z,1005.53
2018-12-10T08:04:50.973Z,1005.53
2018-12-10T08:05:50.912Z,1005.53
2018-12-10T08:06:50.858Z,1005.54
2018-12-10T08:07:50.831Z,1005.50
2018-12-10T08:08:50.750Z,1005.54
2018-12-10T08:09:50.697Z,1005.59
2018-12-10T08:10:50.636Z,1005.61
2018-12-10T08:11:50.582Z,1005.64
2018-12-10T08:12:50.547Z,1005.64
2018-12-10T08:13:50.466Z,1005.68
2018-12-10T08:14:50.411Z,1005.65
2018-12-10T08:15:50.355Z,1005.68
2018-12-10T08:16:50.300Z,1005.73
2018-12-10T08:17:50.267Z,1005.74
2018-12-10T08:18:50.186Z,1005.77
2018-12-10T08:19:50.138Z,1005.80
2018-12-10T08:20:50.079Z,1005.83
2018-12-10T08:21:50.021Z,1005.84
2018-12-10T08:22:49.982Z,1005.79
2018-12-10T08:23:49.912Z,1005.84
2018-12-10T08:24:49.851Z,1005.85
2018-12-10T08:25:49.805Z,1005.85
2018-12-10T08:26:49.737Z,1005.89
2018-12-10T08:27:49.703Z,1005.87
2018-12-10T08:28:49.660Z,1005.91
2018-12-10T08:29:49.578Z,1005.92
2018-12-10T08:30:49.513Z,1005.88
2018-12-10T08:31:49.472Z,1005.88
2018-12-10T08:32:49.422Z,1005.87
2018-12-10T08:33:49.342Z,1005.85
2018-12-10T08:34:49.287Z,1005.88
2018-12-10T08:35:49.233Z,1005.84
2018-12-10T08:36:49.172Z,1005.87
2018-12-10T08:37:49.143Z,1005.85
2018-12-10T08:38:49.065Z,1005.86
2018-12-10T08:39:49.004Z,1005.84
2018-12-10T08:40:48.946Z,1005.83
2018-12-10T08:41:48.892Z,1005.72
2018-12-10T08:42:48.863Z,1005.84
2018-12-10T08:43:48.783Z,1005.82
2018-12-10T08:44:48.726Z,1005.86
2018-12-10T08:45:48.670Z,1005.81
2018-12-10T08:46:48.610Z,1005.81
2018-12-10T08:47:48.583Z,1005.78
2018-12-10T08:48:48.495Z,1005.88
2018-12-10T08:49:48.441Z,1005.86
2018-12-10T08:50:48.389Z,1005.91
2018-12-10T08:51:48.330Z,1005.91
2018-12-10T08:52:48.298Z,1005.89
2018-12-10T08:53:48.223Z,1005.91
2018-12-10T08:54:48.163Z,1005.92
2018-12-10T08:55:48.108Z,1005.92
2018-12-10T08:56:48.044Z,1005.90
2018-12-10T08:57:48.014Z,1005.88
2018-12-10T08:58:47.941Z,1005.89
2018-12-10T08:59:47.882Z,1005.85
2018-12-10T09:00:47.983Z,1005.87
2018-12-10T09:01:47.768Z,1005.97
2018-12-10T09:02:47.735Z,1006.01
2018-12-10T09:03:47.661Z,1005.96
2018-12-10T09:04:47.601Z,1005.97
2018-12-10T09:05:47.541Z,1005.96
2018-12-10T09:06:47.486Z,1005.98
2018-12-10T09:07:47.453Z,1006.00
2018-12-10T09:08:47.378Z,1006.00
2018-12-10T09:09:47.329Z,1006.00
2018-12-10T09:10:47.264Z,1006.00
2018-12-10T09:11:47.213Z,1006.01
2018-12-10T09:12:47.592Z,1006.02
2018-12-10T09:13:47.095Z,1006.02
2018-12-10T09:14:47.053Z,1006.06
2018-12-10T09:15:46.983Z,1006.04
2018-12-10T09:16:47.076Z,1006.06
2018-12-10T09:17:47.066Z,1006.10
2018-12-10T09:18:47.039Z,1006.11
2018-12-10T09:19:46.757Z,1006.14
2018-12-10T09:20:46.706Z,1006.18
2018-12-10T09:21:46.652Z,1006.12
2018-12-10T09:22:46.593Z,1006.19
2018-12-10T09:23:46.559Z,1006.15
2018-12-10T09:24:46.483Z,1006.15
2018-12-10T09:25:46.425Z,1006.16
2018-12-10T09:26:46.369Z,1006.24
2018-12-10T09:27:46.314Z,1006.23
2018-12-10T09:28:46.279Z,1006.26
2018-12-10T09:29:46.266Z,1006.26
2018-12-10T09:30:46.148Z,1006.35
2018-12-10T09:31:46.092Z,1006.31
2018-12-10T09:32:46.037Z,1006.30
2018-12-10T09:33:46.010Z,1006.30
2018-12-10T09:34:45.919Z,1006.28
2018-12-10T09:35:45.878Z,1006.28
2018-12-10T09:36:45.814Z,1006.25
2018-12-10T09:37:45.756Z,1006.27
2018-12-10T09:38:45.725Z,1006.21
2018-12-10T09:39:45.651Z,1006.24
2018-12-10T09:40:45.590Z,1006.25
2018-12-10T09:41:45.535Z,1006.26
2018-12-10T09:42:45.481Z,1006.25
2018-12-10T09:43:45.443Z,1006.19
2018-12-10T09:44:45.368Z,1006.18
2018-12-10T09:45:45.309Z,1006.21
2018-12-10T09:46:45.276Z,1006.19
2018-12-10T09:47:45.197Z,1006.26
2018-12-10T09:48:45.167Z,1006.31
2018-12-10T09:49:45.141Z,1006.25
2018-12-10T09:50:45.031Z,1006.26
2018-12-10T09:51:44.982Z,1006.27
2018-12-10T09:52:44.918Z,1006.38
2018-12-10T09:53:44.885Z,1006.32
2018-12-10T09:54:44.806Z,1006.30
2018-12-10T09:55:44.752Z,1006.31
2018-12-10T09:56:44.695Z,1006.39
2018-12-10T09:57:44.640Z,1006.38
2018-12-10T09:58:44.613Z,1006.40
2018-12-10T09:59:44.533Z,1006.39
2018-12-10T10:00:44.473Z,1006.41
2018-12-10T10:01:44.423Z,1006.41
2018-12-10T10:02:44.370Z,1006.39
2018-12-10T10:03:44.329Z,1006.40
2018-12-10T10:04:44.253Z,1006.40
2018-12-10T10:05:44.190Z,1006.39
2018-12-10T10:06:44.141Z,1006.37
2018-12-10T10:07:44.087Z,1006.40
2018-12-10T10:08:44.068Z,1006.41
2018-12-10T10:09:43.972Z,1006.38
2018-12-10T10:10:43.917Z,1006.30
2018-12-10T10:11:43.872Z,1006.34
2018-12-10T10:12:43.807Z,1006.35
2018-12-10T10:13:43.750Z,1006.29
2018-12-10T10:14:43.720Z,1006.27
2018-12-10T10:15:43.642Z,1006.25
2018-12-10T10:16:43.582Z,1006.31
2018-12-10T10:17:43.529Z,1006.30
2018-12-10T10:18:43.471Z,1006.31
2018-12-10T10:19:43.442Z,1006.38
2018-12-10T10:20:43.359Z,1006.42
2018-12-10T10:21:43.303Z,1006.47
2018-12-10T10:22:43.250Z,1006.42
2018-12-10T10:23:43.199Z,1006.38
2018-12-10T10:24:43.165Z,1006.44
2018-12-10T10:25:43.086Z,1006.37
2018-12-10T10:26:43.028Z,1006.41
2018-12-10T10:27:42.971Z,1006.35
2018-12-10T10:28:42.914Z,1006.31
2018-12-10T10:29:42.885Z,1006.40
2018-12-10T10:30:44.100Z,1006.49
2018-12-10T10:31:42.751Z,1006.48
2018-12-10T10:32:42.697Z,1006.39
2018-12-10T10:33:42.638Z,1006.45
2018-12-10T10:34:42.608Z,1006.47
2018-12-10T10:35:42.528Z,1006.51
2018-12-10T10:36:44.538Z,1006.57
2018-12-10T10:37:42.419Z,1006.56
2018-12-10T10:38:42.363Z,1006.51
2018-12-10T10:39:42.336Z,1006.51
2018-12-10T10:40:42.247Z,1006.50
2018-12-10T10:41:42.193Z,1006.44
2018-12-10T10:42:42.136Z,1006.45
2018-12-10T10:43:42.086Z,1006.42
2018-12-10T10:44:42.054Z,1006.38
2018-12-10T10:45:41.975Z,1006.43
2018-12-10T10:46:41.916Z,1006.40
2018-12-10T10:47:41.861Z,1006.42
2018-12-10T10:48:41.804Z,1006.38
2018-12-10T10:49:41.770Z,1006.38
2018-12-10T10:50:41.692Z,1006.38
2018-12-10T10:51:41.638Z,1006.33
2018-12-10T10:52:41.583Z,1006.26
2018-12-10T10:53:41.528Z,1006.34
2018-12-10T10:54:41.504Z,1006.28
2018-12-10T10:55:41.419Z,1006.31
2018-12-10T10:56:41.360Z,1006.28
2018-12-10T10:57:41.306Z,1006.26
2018-12-10T10:58:41.250Z,1006.27
2018-12-10T10:59:41.216Z,1006.28
2018-12-10T11:00:41.140Z,1006.32
2018-12-10T11:01:41.084Z,1006.28
2018-12-10T11:02:41.031Z,1006.28
2018-12-10T11:03:40.973Z,1006.23
2018-12-10T11:04:40.943Z,1006.25
2018-12-10T11:05:40.905Z,1006.25
2018-12-10T11:06:40.808Z,1006.25
2018-12-10T11:07:40.765Z,1006.26
2018-12-10T11:08:40.687Z,1006.29
2018-12-10T11:09:40.689Z,1006.32
2018-12-10T11:10:40.586Z,1006.29
2018-12-10T11:11:40.532Z,1006.33
2018-12-10T11:12:40.474Z,1006.30
2018-12-10T11:13:40.415Z,1006.27
2018-12-10T11:14:40.361Z,1006.28
2018-12-10T11:15:40.332Z,1006.29
2018-12-10T11:16:40.244Z,1006.27
2018-12-10T11:17:40.195Z,1006.37
2018-12-10T11:18:40.140Z,1006.23
2018-12-10T11:19:40.089Z,1006.26
2018-12-10T11:20:40.134Z,1006.22
2018-12-10T11:21:39.977Z,1006.18
2018-12-10T11:22:40.475Z,1006.22
2018-12-10T11:23:39.862Z,1006.21
2018-12-10T11:24:39.801Z,1006.19
2018-12-10T11:25:39.774Z,1006.21
2018-12-10T11:26:39.703Z,1006.20
2018-12-10T11:27:39.642Z,1006.21
2018-12-10T11:28:39.580Z,1006.21
2018-12-10T11:29:39.528Z,1006.23
2018-12-10T11:30:39.502Z,1006.26
2018-12-10T11:31:39.428Z,1006.26
2018-12-10T11:32:39.366Z,1006.20
2018-12-10T11:33:39.313Z,1006.27
2018-12-10T11:34:39.255Z,1006.26
2018-12-10T11:35:39.225Z,1006.21
2018-12-10T11:36:39.143Z,1006.24
2018-12-10T11:37:39.090Z,1006.21
2018-12-10T11:38:39.034Z,1006.21
2018-12-10T11:39:38.975Z,1006.22
2018-12-10T11:40:38.950Z,1006.28
2018-12-10T11:41:38.869Z,1006.26
2018-12-10T11:42:38.812Z,1006.26
2018-12-10T11:43:38.759Z,1006.30
2018-12-10T11:44:38.703Z,1006.20
2018-12-10T11:45:38.671Z,1006.14
2018-12-10T11:46:38.591Z,1006.13
2018-12-10T11:47:38.535Z,1006.10
2018-12-10T11:48:38.489Z,1006.05
2018-12-10T11:49:38.434Z,1006.06
2018-12-10T11:50:38.400Z,1006.10
2018-12-10T11:51:38.325Z,1006.06
2018-12-10T11:52:38.263Z,1006.04
2018-12-10T11:53:38.208Z,1005.85
2018-12-10T11:54:38.152Z,1005.91
2018-12-10T11:55:38.126Z,1005.84
2018-12-10T11:56:38.042Z,1005.95
2018-12-10T11:57:37.990Z,1005.87
2018-12-10T11:58:37.936Z,1005.94
2018-12-10T11:59:37.879Z,1005.90
2018-12-10T12:00:37.849Z,1005.86
2018-12-10T12:01:37.769Z,1005.83
2018-12-10T12:02:37.713Z,1005.81
2018-12-10T12:03:37.658Z,1005.85
2018-12-10T12:04:37.601Z,1005.86
2018-12-10T12:05:37.571Z,1005.87